createdAt,value
2024-04-23T00:02:54.492Z,1010.3
2024-04-23T00:05:54.455Z,1010.29
2024-04-23T00:08:54.445Z,1010.22
2024-04-23T00:11:54.469Z,1010.16
2024-04-23T00:14:54.460Z,1010.15
2024-04-23T00:17:54.504Z,1010.17
2024-04-23T00:20:54.464Z,1010.14
2024-04-23T00:23:54.468Z,1010.16
2024-04-23T00:26:54.461Z,1010.17
2024-04-23T00:29:54.463Z,1010.12
2024-04-23T00:32:54.569Z,1010.11
2024-04-23T00:35:54.461Z,1010.09
2024-04-23T00:38:54.541Z,1010.05
2024-04-23T00:41:54.486Z,1010.04
2024-04-23T00:44:54.525Z,1010
2024-04-23T00:47:54.535Z,1010
2024-04-23T00:50:54.507Z,1009.97
2024-04-23T00:53:54.513Z,1010
2024-04-23T00:56:54.502Z,1009.97
2024-04-23T00:59:54.501Z,1009.95
2024-04-23T01:02:54.580Z,1009.9
2024-04-23T01:05:54.503Z,1009.91
2024-04-23T01:08:54.504Z,1009.89
2024-04-23T01:11:54.510Z,1009.91
2024-04-23T01:14:54.508Z,1009.93
2024-04-23T01:17:54.532Z,1009.93
2024-04-23T01:20:54.504Z,1009.95
2024-04-23T01:23:54.510Z,1009.94
2024-04-23T01:26:54.510Z,1009.9
2024-04-23T01:29:54.503Z,1009.9
2024-04-23T01:32:54.614Z,1009.89
2024-04-23T01:35:54.505Z,1009.86
2024-04-23T01:38:54.565Z,1009.85
2024-04-23T01:41:54.506Z,1009.85
2024-04-23T01:44:54.517Z,1009.85
2024-04-23T01:47:54.703Z,1009.8
2024-04-23T01:50:54.538Z,1009.77
2024-04-23T01:53:54.620Z,1009.74
2024-04-23T01:56:54.506Z,1009.77
2024-04-23T01:59:54.553Z,1009.77
2024-04-23T02:02:54.516Z,1009.74
2024-04-23T02:05:54.516Z,1009.75
2024-04-23T02:08:54.510Z,1009.68
2024-04-23T02:11:54.561Z,1009.69
2024-04-23T02:14:54.516Z,1009.68
2024-04-23T02:17:54.586Z,1009.68
2024-04-23T02:20:54.547Z,1009.67
2024-04-23T02:23:54.642Z,1009.67
2024-04-23T02:26:54.542Z,1009.64
2024-04-23T02:29:54.521Z,1009.62
2024-04-23T02:32:54.645Z,1009.6
2024-04-23T02:35:54.528Z,1009.52
2024-04-23T02:38:54.525Z,1009.46
2024-04-23T02:41:54.521Z,1009.46
2024-04-23T02:44:54.528Z,1009.5
2024-04-23T02:47:54.697Z,1009.53
2024-04-23T02:50:54.572Z,1009.55
2024-04-23T02:53:54.537Z,1009.52
2024-04-23T02:56:54.537Z,1009.49
2024-04-23T02:59:54.546Z,1009.46
2024-04-23T03:05:54.550Z,1009.48
2024-04-23T03:08:54.558Z,1009.49
2024-04-23T03:11:54.545Z,1009.52
2024-04-23T03:14:54.537Z,1009.53
2024-04-23T03:17:54.667Z,1009.48
2024-04-23T03:20:54.541Z,1009.45
2024-04-23T03:23:54.566Z,1009.46
2024-04-23T03:26:54.550Z,1009.47
2024-04-23T03:29:54.544Z,1009.43
2024-04-23T03:35:54.550Z,1009.45
2024-04-23T03:38:54.549Z,1009.48
2024-04-23T03:41:54.542Z,1009.48
2024-04-23T03:44:54.554Z,1009.48
2024-04-23T03:47:54.622Z,1009.5
2024-04-23T03:50:54.555Z,1009.54
2024-04-23T03:53:54.560Z,1009.55
2024-04-23T03:56:54.548Z,1009.53
2024-04-23T03:59:54.550Z,1009.55
2024-04-23T04:05:54.564Z,1009.52
2024-04-23T04:08:57.323Z,1009.51
2024-04-23T04:11:54.589Z,1009.56
2024-04-23T04:14:54.555Z,1009.59
2024-04-23T04:17:54.682Z,1009.57
2024-04-23T04:20:54.558Z,1009.55
2024-04-23T04:23:54.550Z,1009.51
2024-04-23T04:26:54.567Z,1009.53
2024-04-23T04:29:54.568Z,1009.54
2024-04-23T04:32:54.617Z,1009.52
2024-04-23T04:35:54.547Z,1009.52
2024-04-23T04:38:54.572Z,1009.54
2024-04-23T04:41:54.554Z,1009.56
2024-04-23T04:44:54.554Z,1009.59
2024-04-23T04:47:54.647Z,1009.6
2024-04-23T04:50:54.542Z,1009.63
2024-04-23T04:53:54.557Z,1009.61
2024-04-23T04:56:54.551Z,1009.6
2024-04-23T04:59:54.554Z,1009.58
2024-04-23T05:02:54.597Z,1009.58
2024-04-23T05:05:54.550Z,1009.6
2024-04-23T05:08:54.561Z,1009.61
2024-04-23T05:11:54.608Z,1009.63
2024-04-23T05:14:54.557Z,1009.62
2024-04-23T05:17:54.583Z,1009.6
2024-04-23T05:20:54.557Z,1009.61
2024-04-23T05:23:54.558Z,1009.55
2024-04-23T05:26:54.569Z,1009.55
2024-04-23T05:29:54.588Z,1009.58
2024-04-23T05:32:54.611Z,1009.59
2024-04-23T05:35:54.590Z,1009.61
2024-04-23T05:38:54.574Z,1009.58
2024-04-23T05:41:54.567Z,1009.61
2024-04-23T05:44:54.560Z,1009.61
2024-04-23T05:47:54.615Z,1009.6
2024-04-23T05:50:54.568Z,1009.66
2024-04-23T05:53:54.579Z,1009.64
2024-04-23T05:56:54.568Z,1009.62
2024-04-23T05:59:54.575Z,1009.67
2024-04-23T06:02:54.624Z,1009.72
2024-04-23T06:05:54.574Z,1009.79
2024-04-23T06:08:54.575Z,1009.78
2024-04-23T06:11:54.604Z,1009.74
2024-04-23T06:14:54.567Z,1009.74
2024-04-23T06:17:54.711Z,1009.71
2024-04-23T06:20:54.575Z,1009.75
2024-04-23T06:23:54.577Z,1009.72
2024-04-23T06:26:54.571Z,1009.7
2024-04-23T06:29:54.573Z,1009.67
2024-04-23T06:32:54.645Z,1009.64
2024-04-23T06:35:54.593Z,1009.67
2024-04-23T06:38:54.578Z,1009.59
2024-04-23T06:41:54.579Z,1009.61
2024-04-23T06:44:54.582Z,1009.62
2024-04-23T06:47:54.731Z,1009.59
2024-04-23T06:50:54.575Z,1009.53
2024-04-23T06:53:54.597Z,1009.51
2024-04-23T06:56:54.579Z,1009.49
2024-04-23T06:59:54.569Z,1009.47
2024-04-23T07:02:54.700Z,1009.49
2024-04-23T07:05:54.585Z,1009.46
2024-04-23T07:08:56.352Z,1009.44
2024-04-23T07:11:54.646Z,1009.4
2024-04-23T07:14:54.597Z,1009.36
2024-04-23T07:17:54.631Z,1009.38
2024-04-23T07:20:54.581Z,1009.31
2024-04-23T07:23:54.579Z,1009.35
2024-04-23T07:26:54.584Z,1009.36
2024-04-23T07:29:54.589Z,1009.36
2024-04-23T07:32:54.635Z,1009.33
2024-04-23T07:35:54.608Z,1009.37
2024-04-23T07:38:54.588Z,1009.32
2024-04-23T07:41:54.599Z,1009.3
2024-04-23T07:44:54.597Z,1009.31
2024-04-23T07:47:54.731Z,1009.3
2024-04-23T07:50:54.596Z,1009.25
2024-04-23T07:53:54.597Z,1009.26
2024-04-23T07:56:54.592Z,1009.27
2024-04-23T07:59:54.591Z,1009.29
2024-04-23T08:05:54.597Z,1009.26
2024-04-23T08:08:54.599Z,1009.21
2024-04-23T08:11:54.631Z,1009.19
2024-04-23T08:14:54.614Z,1009.17
2024-04-23T08:17:54.813Z,1009.13
2024-04-23T08:20:54.597Z,1009.12
2024-04-23T08:23:54.585Z,1009.07
2024-04-23T08:26:54.608Z,1009.14
2024-04-23T08:29:54.595Z,1009.1
2024-04-23T08:35:54.632Z,1009.02
2024-04-23T08:38:54.625Z,1009.01
2024-04-23T08:41:54.617Z,1009.01
2024-04-23T08:44:54.625Z,1008.92
2024-04-23T08:47:54.694Z,1008.88
2024-04-23T08:50:54.670Z,1008.87
2024-04-23T08:53:54.641Z,1008.84
2024-04-23T08:56:54.633Z,1008.84
2024-04-23T08:59:54.631Z,1008.84
2024-04-23T09:05:54.996Z,1008.75
2024-04-23T09:08:54.693Z,1008.71
2024-04-23T09:11:54.733Z,1008.61
2024-04-23T09:14:54.701Z,1008.74
2024-04-23T09:17:54.721Z,1008.68
2024-04-23T09:20:54.715Z,1008.59
2024-04-23T09:23:54.702Z,1008.55
2024-04-23T09:26:54.697Z,1008.51
2024-04-23T09:29:54.694Z,1008.49
2024-04-23T09:32:54.792Z,1008.48
2024-04-23T09:35:54.695Z,1008.44
2024-04-23T09:38:54.692Z,1008.45
2024-04-23T09:41:54.790Z,1008.43
2024-04-23T09:44:54.875Z,1008.4
2024-04-23T09:47:54.716Z,1008.33
2024-04-23T09:50:54.698Z,1008.27
2024-04-23T09:53:54.694Z,1008.29
2024-04-23T09:56:54.693Z,1008.2
2024-04-23T09:59:54.699Z,1008.15
2024-04-23T10:02:54.852Z,1008.11
2024-04-23T10:05:54.702Z,1008.04
2024-04-23T10:08:54.700Z,1008.03
2024-04-23T10:11:54.733Z,1008
2024-04-23T10:14:54.723Z,1007.96
2024-04-23T10:17:54.736Z,1007.95
2024-04-23T10:20:54.736Z,1007.92
2024-04-23T10:23:54.697Z,1007.87
2024-04-23T10:26:54.692Z,1007.82
2024-04-23T10:29:54.698Z,1007.86
2024-04-23T10:32:54.755Z,1007.82
2024-04-23T10:35:54.707Z,1007.78
2024-04-23T10:38:54.700Z,1007.8
2024-04-23T10:41:54.727Z,1007.8
2024-04-23T10:44:54.698Z,1007.7
2024-04-23T10:47:56.943Z,1007.67
2024-04-23T10:50:54.701Z,1007.64
2024-04-23T10:53:54.699Z,1007.68
2024-04-23T10:56:54.703Z,1007.63
2024-04-23T10:59:54.749Z,1007.56
2024-04-23T11:02:54.770Z,1007.55
2024-04-23T11:05:54.993Z,1007.5
2024-04-23T11:08:54.733Z,1007.54
2024-04-23T11:11:54.750Z,1007.52
2024-04-23T11:14:54.714Z,1007.39
2024-04-23T11:17:54.778Z,1007.29
2024-04-23T11:20:54.738Z,1007.26
2024-04-23T11:23:54.701Z,1007.25
2024-04-23T11:26:54.715Z,1007.21
2024-04-23T11:29:54.744Z,1007.1
2024-04-23T11:35:54.723Z,1007.04
2024-04-23T11:38:54.774Z,1007.03
2024-04-23T11:41:54.707Z,1007
2024-04-23T11:44:54.706Z,1006.91
2024-04-23T11:47:54.874Z,1006.86
2024-04-23T11:50:54.718Z,1006.8
2024-04-23T11:53:54.698Z,1006.76
2024-04-23T11:56:54.706Z,1006.7
2024-04-23T11:59:54.716Z,1006.68
2024-04-23T12:02:54.713Z,1006.63
2024-04-23T12:05:54.822Z,1006.6
2024-04-23T12:08:54.723Z,1006.6
2024-04-23T12:11:54.762Z,1006.56
2024-04-23T12:14:54.712Z,1006.54
2024-04-23T12:17:54.800Z,1006.55
2024-04-23T12:20:54.721Z,1006.55
2024-04-23T12:23:54.725Z,1006.51
2024-04-23T12:26:54.718Z,1006.43
2024-04-23T12:29:54.719Z,1006.34
2024-04-23T12:35:54.730Z,1006.35
2024-04-23T12:38:54.712Z,1006.3
2024-04-23T12:41:54.719Z,1006.25
2024-04-23T12:44:54.754Z,1006.17
2024-04-23T12:47:54.759Z,1006.1
2024-04-23T12:50:54.768Z,1006.01
2024-04-23T12:53:54.723Z,1006.06
2024-04-23T12:56:55.136Z,1006.08
2024-04-23T12:59:54.730Z,1005.98
2024-04-23T13:05:54.741Z,1005.86
2024-04-23T13:08:54.789Z,1005.84
2024-04-23T13:11:56.535Z,1005.76
2024-04-23T13:14:54.757Z,1005.78
2024-04-23T13:17:54.754Z,1005.74
2024-04-23T13:20:54.765Z,1005.68
2024-04-23T13:23:54.738Z,1005.62
2024-04-23T13:26:54.725Z,1005.57
2024-04-23T13:29:54.727Z,1005.56
2024-04-23T13:35:54.728Z,1005.5
2024-04-23T13:38:54.726Z,1005.43
2024-04-23T13:41:54.734Z,1005.43
2024-04-23T13:44:54.758Z,1005.45
2024-04-23T13:47:54.790Z,1005.42
2024-04-23T13:50:54.727Z,1005.4
2024-04-23T13:53:54.742Z,1005.34
2024-04-23T13:56:54.731Z,1005.31
2024-04-23T13:59:54.743Z,1005.29
2024-04-23T14:02:54.794Z,1005.24
2024-04-23T14:05:54.731Z,1005.24
2024-04-23T14:08:54.738Z,1005.2
2024-04-23T14:11:54.759Z,1005.14
2024-04-23T14:14:54.726Z,1005.1
2024-04-23T14:17:54.727Z,1005.16
2024-04-23T14:20:54.733Z,1005.13
2024-04-23T14:23:54.729Z,1005.09
2024-04-23T14:26:54.734Z,1005.03
2024-04-23T14:29:54.732Z,1004.99
2024-04-23T14:35:54.734Z,1004.93
2024-04-23T14:38:54.732Z,1004.93
2024-04-23T14:41:54.738Z,1004.84
2024-04-23T14:44:56.077Z,1004.83
2024-04-23T14:47:54.791Z,1004.76
2024-04-23T14:50:54.722Z,1004.82
2024-04-23T14:53:54.730Z,1004.84
2024-04-23T14:56:54.729Z,1004.77
2024-04-23T14:59:54.732Z,1004.71
2024-04-23T15:05:54.717Z,1004.69
2024-04-23T15:08:54.722Z,1004.67
2024-04-23T15:11:55.085Z,1004.64
2024-04-23T15:14:54.731Z,1004.59
2024-04-23T15:17:54.878Z,1004.61
2024-04-23T15:20:54.733Z,1004.57
2024-04-23T15:23:54.790Z,1004.53
2024-04-23T15:26:54.731Z,1004.52
2024-04-23T15:29:54.744Z,1004.48
2024-04-23T15:32:55.944Z,1004.39
2024-04-23T15:35:54.751Z,1004.35
2024-04-23T15:38:54.745Z,1004.43
2024-04-23T15:41:54.742Z,1004.44
2024-04-23T15:44:54.733Z,1004.43
2024-04-23T15:47:54.909Z,1004.39
2024-04-23T15:50:54.740Z,1004.4
2024-04-23T15:53:54.738Z,1004.35
2024-04-23T15:56:54.754Z,1004.31
2024-04-23T15:59:54.745Z,1004.29
2024-04-23T16:05:54.729Z,1004.27
2024-04-23T16:08:54.747Z,1004.2
2024-04-23T16:11:54.845Z,1004.23
2024-04-23T16:14:54.752Z,1004.18
2024-04-23T16:17:54.765Z,1004.15
2024-04-23T16:20:54.750Z,1004.13
2024-04-23T16:23:54.741Z,1004.09
2024-04-23T16:26:54.740Z,1004.08
2024-04-23T16:29:54.738Z,1004.05
2024-04-23T16:32:54.779Z,1004.03
2024-04-23T16:35:54.739Z,1003.99
2024-04-23T16:38:54.743Z,1004.02
2024-04-23T16:41:54.735Z,1004.02
2024-04-23T16:44:54.736Z,1003.98
2024-04-23T16:47:54.880Z,1003.99
2024-04-23T16:50:54.739Z,1003.94
2024-04-23T16:53:54.735Z,1003.89
2024-04-23T16:56:54.740Z,1003.9
2024-04-23T16:59:54.738Z,1003.87
2024-04-23T17:05:54.753Z,1003.92
2024-04-23T17:08:54.734Z,1003.91
2024-04-23T17:11:54.945Z,1003.83
2024-04-23T17:14:54.741Z,1003.84
2024-04-23T17:17:54.810Z,1003.82
2024-04-23T17:20:54.741Z,1003.84
2024-04-23T17:23:54.747Z,1003.81
2024-04-23T17:26:54.780Z,1003.81
2024-04-23T17:29:54.760Z,1003.8
2024-04-23T17:35:54.758Z,1003.8
2024-04-23T17:38:54.772Z,1003.75
2024-04-23T17:41:54.750Z,1003.72
2024-04-23T17:44:54.753Z,1003.78
2024-04-23T17:47:54.842Z,1003.76
2024-04-23T17:50:54.774Z,1003.76
2024-04-23T17:53:54.746Z,1003.72
2024-04-23T17:56:54.751Z,1003.76
2024-04-23T17:59:54.746Z,1003.72
2024-04-23T18:05:54.749Z,1003.76
2024-04-23T18:08:54.743Z,1003.78
2024-04-23T18:11:54.783Z,1003.8
2024-04-23T18:14:54.775Z,1003.77
2024-04-23T18:17:56.150Z,1003.78
2024-04-23T18:20:54.761Z,1003.79
2024-04-23T18:23:54.757Z,1003.8
2024-04-23T18:26:54.759Z,1003.81
2024-04-23T18:29:54.761Z,1003.82
2024-04-23T18:32:54.816Z,1003.82
2024-04-23T18:35:54.771Z,1003.82
2024-04-23T18:38:54.809Z,1003.84
2024-04-23T18:41:54.768Z,1003.85
2024-04-23T18:44:54.788Z,1003.84
2024-04-23T18:47:54.810Z,1003.84
2024-04-23T18:50:54.762Z,1003.83
2024-04-23T18:53:54.756Z,1003.81
2024-04-23T18:56:54.764Z,1003.84
2024-04-23T18:59:54.768Z,1003.83
2024-04-23T19:02:54.861Z,1003.79
2024-04-23T19:05:54.760Z,1003.83
2024-04-23T19:08:54.772Z,1003.79
2024-04-23T19:11:54.821Z,1003.78
2024-04-23T19:14:54.781Z,1003.83
2024-04-23T19:17:54.823Z,1003.86
2024-04-23T19:20:54.775Z,1003.86
2024-04-23T19:23:54.799Z,1003.87
2024-04-23T19:26:54.780Z,1003.86
2024-04-23T19:29:54.782Z,1003.87
2024-04-23T19:32:54.880Z,1003.89
2024-04-23T19:35:56.522Z,1003.95
2024-04-23T19:38:54.791Z,1003.9
2024-04-23T19:41:54.770Z,1003.91
2024-04-23T19:44:54.784Z,1003.86
2024-04-23T19:47:54.832Z,1003.9
2024-04-23T19:50:54.776Z,1003.87
2024-04-23T19:53:54.769Z,1003.84
2024-04-23T19:56:54.781Z,1003.86
2024-04-23T19:59:54.782Z,1003.84
2024-04-23T20:02:54.778Z,1003.86
2024-04-23T20:05:54.779Z,1003.85
2024-04-23T20:08:54.780Z,1003.81
2024-04-23T20:11:54.867Z,1003.82
2024-04-23T20:14:54.810Z,1003.76
2024-04-23T20:17:54.852Z,1003.76
2024-04-23T20:20:54.777Z,1003.76
2024-04-23T20:23:54.784Z,1003.74
2024-04-23T20:26:54.848Z,1003.71
2024-04-23T20:29:54.800Z,1003.73
2024-04-23T20:32:56.745Z,1003.66
2024-04-23T20:35:54.781Z,1003.63
2024-04-23T20:38:54.790Z,1003.64
2024-04-23T20:41:54.783Z,1003.6
2024-04-23T20:44:54.777Z,1003.55
2024-04-23T20:47:55.069Z,1003.56
2024-04-23T20:50:54.793Z,1003.48
2024-04-23T20:53:54.783Z,1003.53
2024-04-23T20:56:54.780Z,1003.55
2024-04-23T20:59:54.785Z,1003.5
2024-04-23T21:02:54.860Z,1003.47
2024-04-23T21:05:54.787Z,1003.49
2024-04-23T21:08:54.797Z,1003.44
2024-04-23T21:11:54.846Z,1003.39
2024-04-23T21:14:54.790Z,1003.4
2024-04-23T21:17:54.845Z,1003.39
2024-04-23T21:20:54.800Z,1003.39
2024-04-23T21:23:54.801Z,1003.36
2024-04-23T21:26:54.780Z,1003.31
2024-04-23T21:29:54.800Z,1003.33
2024-04-23T21:35:54.799Z,1003.28
2024-04-23T21:38:54.798Z,1003.29
2024-04-23T21:41:56.248Z,1003.29
2024-04-23T21:44:54.781Z,1003.31
2024-04-23T21:47:54.884Z,1003.28
2024-04-23T21:50:54.803Z,1003.29
2024-04-23T21:53:54.793Z,1003.26
2024-04-23T21:56:54.801Z,1003.28
2024-04-23T21:59:54.804Z,1003.27
2024-04-23T22:05:54.794Z,1003.27
2024-04-23T22:08:54.789Z,1003.21
2024-04-23T22:11:54.829Z,1003.18
2024-04-23T22:14:54.799Z,1003.15
2024-04-23T22:17:54.880Z,1003.14
2024-04-23T22:20:54.796Z,1003.1
2024-04-23T22:23:54.793Z,1003.07
2024-04-23T22:26:54.804Z,1003.05
2024-04-23T22:29:54.797Z,1003.04
2024-04-23T22:35:54.798Z,1002.98
2024-04-23T22:38:54.799Z,1002.97
2024-04-23T22:41:54.805Z,1002.95
2024-04-23T22:44:54.805Z,1002.96
2024-04-23T22:47:54.821Z,1002.93
2024-04-23T22:50:54.813Z,1002.9
2024-04-23T22:53:54.815Z,1002.87
2024-04-23T22:56:54.811Z,1002.87
2024-04-23T22:59:54.864Z,1002.82
2024-04-23T23:02:54.850Z,1002.81
2024-04-23T23:05:54.806Z,1002.79
2024-04-23T23:08:54.809Z,1002.81
2024-04-23T23:11:54.870Z,1002.77
2024-04-23T23:14:54.802Z,1002.71
2024-04-23T23:17:54.849Z,1002.69
2024-04-23T23:20:54.821Z,1002.66
2024-04-23T23:23:54.800Z,1002.61
2024-04-23T23:26:54.803Z,1002.54
2024-04-23T23:29:54.822Z,1002.52
2024-04-23T23:35:54.807Z,1002.44
2024-04-23T23:38:54.818Z,1002.43
2024-04-23T23:41:54.821Z,1002.4
2024-04-23T23:44:54.831Z,1002.36
2024-04-23T23:47:54.972Z,1002.29
2024-04-23T23:50:54.868Z,1002.29
2024-04-23T23:53:54.826Z,1002.24
2024-04-23T23:56:54.810Z,1002.14
2024-04-23T23:59:54.825Z,1002.09
